createdAt,value
2022-09-16T00:00:29.867Z,6.40
2022-09-16T00:02:57.024Z,9.52
2022-09-16T00:05:23.931Z,8.85
2022-09-16T00:07:50.582Z,6.85
2022-09-16T00:10:17.377Z,5.88
2022-09-16T00:12:44.031Z,5.05
2022-09-16T00:15:11.583Z,5.45
2022-09-16T00:17:38.380Z,5.63
2022-09-16T00:20:08.963Z,7.05
2022-09-16T00:22:35.930Z,8.52
2022-09-16T00:25:02.602Z,8.65
2022-09-16T00:27:29.279Z,9.50
2022-09-16T00:29:56.015Z,5.97
2022-09-16T00:32:24.006Z,6.82
2022-09-16T00:34:51.141Z,7.68
2022-09-16T00:37:17.975Z,8.07
2022-09-16T00:39:44.667Z,9.95
2022-09-16T00:42:12.082Z,8.52
2022-09-16T00:45:06.160Z,12.52
2022-09-16T00:47:44.741Z,8.30
2022-09-16T00:50:41.237Z,9.98
2022-09-16T00:53:13.010Z,8.10
2022-09-16T00:55:39.854Z,8.50
2022-09-16T00:58:26.999Z,11.15
2022-09-16T01:00:53.762Z,11.80
2022-09-16T01:03:21.201Z,7.43
2022-09-16T01:05:48.953Z,10.63
2022-09-16T01:08:15.712Z,10.23
2022-09-16T01:10:43.404Z,10.13
2022-09-16T01:13:12.948Z,11.00
2022-09-16T01:15:58.547Z,6.70
2022-09-16T01:19:00.717Z,7.10
2022-09-16T01:21:59.439Z,14.15
2022-09-16T01:24:41.260Z,4.32
2022-09-16T01:27:25.129Z,11.07
2022-09-16T01:30:19.714Z,6.63
2022-09-16T01:32:52.588Z,9.25
2022-09-16T01:35:52.182Z,9.30
2022-09-16T01:38:21.578Z,9.27
2022-09-16T01:41:07.427Z,6.30
2022-09-16T01:44:01.952Z,8.80
2022-09-16T01:46:43.662Z,6.78
2022-09-16T01:49:22.196Z,9.05
2022-09-16T01:52:09.548Z,9.38
2022-09-16T01:55:04.976Z,7.00
2022-09-16T01:57:46.083Z,8.02
2022-09-16T02:00:14.398Z,6.60
2022-09-16T02:02:59.990Z,6.53
2022-09-16T02:05:41.815Z,11.35
2022-09-16T02:08:21.482Z,10.70
2022-09-16T02:10:55.271Z,9.35
2022-09-16T02:13:32.258Z,13.02
2022-09-16T02:16:08.060Z,11.93
2022-09-16T02:18:39.253Z,11.88
2022-09-16T02:21:09.549Z,9.95
2022-09-16T02:23:41.991Z,11.32
2022-09-16T02:26:12.524Z,14.20
2022-09-16T02:28:43.060Z,14.95
2022-09-16T02:31:13.151Z,19.70
2022-09-16T02:33:45.896Z,21.38
2022-09-16T02:36:18.072Z,15.70
2022-09-16T02:38:49.285Z,19.73
2022-09-16T02:41:16.178Z,16.23
2022-09-16T02:43:43.234Z,20.77
2022-09-16T02:46:22.028Z,25.25
2022-09-16T02:49:05.861Z,18.52
2022-09-16T02:51:54.752Z,16.67
2022-09-16T02:54:35.673Z,18.90
2022-09-16T02:57:03.307Z,19.67
2022-09-16T02:59:30.055Z,23.80
2022-09-16T03:01:58.612Z,17.60
2022-09-16T03:04:25.417Z,20.35
2022-09-16T03:06:52.012Z,18.13
2022-09-16T03:09:18.973Z,23.17
2022-09-16T03:12:22.482Z,18.25
2022-09-16T03:15:23.545Z,19.85
2022-09-16T03:18:22.746Z,23.80
2022-09-16T03:21:15.825Z,21.92
2022-09-16T03:23:52.095Z,24.90
2022-09-16T03:26:46.138Z,27.30
2022-09-16T03:29:33.946Z,26.73
2022-09-16T03:32:17.509Z,28.98
2022-09-16T03:34:49.719Z,21.10
2022-09-16T03:37:18.795Z,25.60
2022-09-16T03:39:53.293Z,32.47
2022-09-16T03:42:20.917Z,30.02
2022-09-16T03:44:47.785Z,24.00
2022-09-16T03:47:15.913Z,20.27
2022-09-16T03:49:42.700Z,21.70
2022-09-16T03:52:09.911Z,27.67
2022-09-16T03:54:37.802Z,31.60
2022-09-16T03:57:05.805Z,39.47
2022-09-16T03:59:32.659Z,23.35
2022-09-16T04:01:59.421Z,21.55
2022-09-16T04:04:26.179Z,21.33
2022-09-16T04:06:52.916Z,22.60
2022-09-16T04:09:19.644Z,20.65
2022-09-16T04:11:46.283Z,17.63
2022-09-16T04:14:12.922Z,19.70
2022-09-16T04:16:43.011Z,22.25
2022-09-16T04:19:13.512Z,21.75
2022-09-16T04:21:41.522Z,16.10
2022-09-16T04:24:12.804Z,16.75
2022-09-16T04:26:40.378Z,20.48
2022-09-16T04:29:07.022Z,21.08
2022-09-16T04:31:33.639Z,22.50
2022-09-16T04:34:02.337Z,19.08
2022-09-16T04:36:28.937Z,17.02
2022-09-16T04:38:55.584Z,22.67
2022-09-16T04:41:25.022Z,19.45
2022-09-16T04:43:56.638Z,21.25
2022-09-16T04:46:24.815Z,17.77
2022-09-16T04:48:52.495Z,17.58
2022-09-16T04:51:20.341Z,22.13
2022-09-16T04:53:47.243Z,22.35
2022-09-16T04:56:19.595Z,23.80
2022-09-16T04:58:48.240Z,23.45
2022-09-16T05:01:17.914Z,24.33
2022-09-16T05:03:50.217Z,26.65
2022-09-16T05:06:23.216Z,24.92
2022-09-16T05:08:51.004Z,26.75
2022-09-16T05:11:20.407Z,16.52
2022-09-16T05:13:47.301Z,21.67
2022-09-16T05:16:17.078Z,24.65
2022-09-16T05:18:46.219Z,24.13
2022-09-16T05:21:15.885Z,24.50
2022-09-16T05:23:46.726Z,25.98
2022-09-16T05:26:17.557Z,23.67
2022-09-16T05:28:44.309Z,34.83
2022-09-16T05:31:25.214Z,35.00
2022-09-16T05:34:19.570Z,38.72
2022-09-16T05:36:47.737Z,47.30
2022-09-16T05:39:23.232Z,34.70
2022-09-16T05:41:57.337Z,29.60
2022-09-16T05:44:25.086Z,37.33
2022-09-16T05:46:52.237Z,38.20
2022-09-16T05:49:20.693Z,28.17
2022-09-16T05:51:48.551Z,32.28
2022-09-16T05:54:15.447Z,36.38
2022-09-16T05:56:42.408Z,31.00
2022-09-16T05:59:12.029Z,36.67
2022-09-16T06:01:38.987Z,31.17
2022-09-16T06:04:08.024Z,31.63
2022-09-16T06:06:45.652Z,29.20
2022-09-16T06:09:18.419Z,33.03
2022-09-16T06:11:47.938Z,27.88
2022-09-16T06:14:15.782Z,36.35
2022-09-16T06:16:42.944Z,33.63
2022-09-16T06:19:13.466Z,30.45
2022-09-16T06:21:41.556Z,33.08
2022-09-16T06:24:08.917Z,34.03
2022-09-16T06:26:42.539Z,30.60
2022-09-16T06:29:12.561Z,31.83
2022-09-16T06:31:39.544Z,34.00
2022-09-16T06:34:07.463Z,27.17
2022-09-16T06:36:40.367Z,24.55
2022-09-16T06:39:11.876Z,23.10
2022-09-16T06:41:38.564Z,24.02
2022-09-16T06:44:05.167Z,28.08
2022-09-16T06:46:31.771Z,19.58
2022-09-16T06:49:02.775Z,21.30
2022-09-16T06:51:32.336Z,19.90
2022-09-16T06:54:06.956Z,17.55
2022-09-16T06:56:36.118Z,22.02
2022-09-16T06:59:04.124Z,21.75
2022-09-16T07:01:32.085Z,17.13
2022-09-16T07:04:01.938Z,12.38
2022-09-16T07:09:16.917Z,14.60
2022-09-16T07:11:43.655Z,12.02
2022-09-16T07:14:10.667Z,14.70
2022-09-16T07:16:37.323Z,18.77
2022-09-16T07:19:04.596Z,13.85
2022-09-16T07:21:31.608Z,12.50
2022-09-16T07:24:00.060Z,10.65
2022-09-16T07:26:29.467Z,13.40
2022-09-16T07:28:59.454Z,17.05
2022-09-16T07:31:28.947Z,15.90
2022-09-16T07:34:02.925Z,12.25
2022-09-16T07:39:00.345Z,14.77
2022-09-16T07:41:29.561Z,15.50
2022-09-16T07:43:59.148Z,13.07
2022-09-16T07:46:28.143Z,12.75
2022-09-16T07:48:55.346Z,15.20
2022-09-16T07:51:24.328Z,14.15
2022-09-16T07:54:00.479Z,12.77
2022-09-16T07:56:29.277Z,12.80
2022-09-16T07:58:57.146Z,12.50
2022-09-16T08:01:24.695Z,14.98
2022-09-16T08:03:51.509Z,12.75
2022-09-16T08:06:24.590Z,13.07
2022-09-16T08:08:53.297Z,13.82
2022-09-16T08:11:20.764Z,13.13
2022-09-16T08:13:47.682Z,13.63
2022-09-16T08:16:17.162Z,12.73
2022-09-16T08:18:45.472Z,14.55
2022-09-16T08:21:15.042Z,16.00
2022-09-16T08:23:42.062Z,15.77
2022-09-16T08:26:10.709Z,14.85
2022-09-16T08:28:45.547Z,14.15
2022-09-16T08:31:24.494Z,13.95
2022-09-16T08:33:51.145Z,14.73
2022-09-16T08:36:20.349Z,15.07
2022-09-16T08:38:49.661Z,14.07
2022-09-16T08:41:31.507Z,13.95
2022-09-16T08:44:06.986Z,14.18
2022-09-16T08:46:42.752Z,14.02
2022-09-16T08:49:29.428Z,15.15
2022-09-16T08:51:58.232Z,14.80
2022-09-16T08:54:35.120Z,16.60
2022-09-16T08:57:05.216Z,17.33
2022-09-16T08:59:43.466Z,17.00
2022-09-16T09:05:41.041Z,17.25
2022-09-16T09:08:30.295Z,18.65
2022-09-16T09:11:13.322Z,17.77
2022-09-16T09:13:48.089Z,17.73
2022-09-16T09:16:26.672Z,18.92
2022-09-16T09:18:56.391Z,19.63
2022-09-16T09:22:10.579Z,19.15
2022-09-16T09:25:15.179Z,20.15
2022-09-16T09:28:17.740Z,20.30
2022-09-16T09:30:55.657Z,20.00
2022-09-16T09:33:46.024Z,20.85
2022-09-16T09:36:33.330Z,21.38
2022-09-16T09:39:18.191Z,22.30
2022-09-16T09:41:55.077Z,21.80
2022-09-16T09:44:24.670Z,21.30
2022-09-16T09:46:56.853Z,21.20
2022-09-16T09:49:37.351Z,22.20
2022-09-16T09:52:36.031Z,23.20
2022-09-16T09:55:16.383Z,21.75
2022-09-16T09:58:05.297Z,22.88
2022-09-16T10:00:31.960Z,21.15
2022-09-16T10:03:06.666Z,22.30
2022-09-16T10:05:33.771Z,21.80
2022-09-16T10:08:06.940Z,21.98
2022-09-16T10:10:35.138Z,22.38
2022-09-16T10:13:12.949Z,23.40
2022-09-16T10:15:40.440Z,22.70
2022-09-16T10:18:22.663Z,21.60
2022-09-16T10:21:04.176Z,22.48
2022-09-16T10:23:31.450Z,22.13
2022-09-16T10:26:26.035Z,21.70
2022-09-16T10:28:59.154Z,22.10
2022-09-16T10:31:34.853Z,23.00
2022-09-16T10:34:04.525Z,22.52
2022-09-16T10:36:35.552Z,22.58
2022-09-16T10:39:04.746Z,22.73
2022-09-16T10:41:41.879Z,22.45
2022-09-16T10:44:33.241Z,22.52
2022-09-16T10:47:07.479Z,21.88
2022-09-16T10:49:38.076Z,22.70
2022-09-16T10:52:26.357Z,21.90
2022-09-16T10:54:54.104Z,24.13
2022-09-16T10:57:20.764Z,21.98
2022-09-16T11:00:11.693Z,23.33
2022-09-16T11:02:50.433Z,22.95
2022-09-16T11:05:34.162Z,23.50
2022-09-16T11:08:21.612Z,22.73
2022-09-16T11:11:15.848Z,22.55
2022-09-16T11:14:09.649Z,23.90
2022-09-16T11:16:53.200Z,22.20
2022-09-16T11:19:25.792Z,22.58
2022-09-16T11:21:58.244Z,24.33
2022-09-16T11:24:39.359Z,23.60
2022-09-16T11:27:29.868Z,24.15
2022-09-16T11:30:10.501Z,24.02
2022-09-16T11:33:23.728Z,24.50
2022-09-16T11:36:15.191Z,23.48
2022-09-16T11:38:54.660Z,22.35
2022-09-16T11:41:48.208Z,22.80
2022-09-16T11:44:27.676Z,23.00
2022-09-16T11:47:10.881Z,24.65
2022-09-16T11:49:55.863Z,23.73
2022-09-16T11:52:54.125Z,24.35
2022-09-16T11:55:46.034Z,23.77
2022-09-16T11:58:39.861Z,23.00
2022-09-16T12:01:28.477Z,23.15
2022-09-16T12:04:37.702Z,23.95
2022-09-16T12:07:18.677Z,22.38
2022-09-16T12:09:54.501Z,24.63
2022-09-16T12:12:28.774Z,23.90
2022-09-16T12:15:05.792Z,22.50
2022-09-16T12:17:36.744Z,23.17
2022-09-16T12:20:24.760Z,22.90
2022-09-16T12:23:00.296Z,22.20
2022-09-16T12:25:49.823Z,22.77
2022-09-16T12:28:31.316Z,22.35
2022-09-16T12:31:12.490Z,23.52
2022-09-16T12:34:03.513Z,23.48
2022-09-16T12:36:34.597Z,21.75
2022-09-16T12:39:01.587Z,22.95
2022-09-16T12:42:18.266Z,23.75
2022-09-16T12:45:15.467Z,23.48
2022-09-16T12:47:54.260Z,23.20
2022-09-16T12:50:46.471Z,21.50
2022-09-16T12:53:38.061Z,22.15
2022-09-16T12:56:22.925Z,24.60
2022-09-16T12:59:21.126Z,23.02
2022-09-16T13:01:55.562Z,21.73
2022-09-16T13:04:31.057Z,22.40
2022-09-16T13:06:59.711Z,21.55
2022-09-16T13:09:47.606Z,21.42
2022-09-16T13:12:44.722Z,20.42
2022-09-16T13:15:27.308Z,20.42
2022-09-16T13:17:54.723Z,18.55
2022-09-16T13:20:33.295Z,17.63
2022-09-16T13:23:11.003Z,16.77
2022-09-16T13:25:56.548Z,16.23
2022-09-16T13:28:37.218Z,14.43
2022-09-16T13:31:12.750Z,12.23
2022-09-16T13:33:48.701Z,15.25
2022-09-16T13:36:21.223Z,17.02
2022-09-16T13:38:49.779Z,17.73
2022-09-16T13:41:32.125Z,17.23
2022-09-16T13:43:59.638Z,17.75
2022-09-16T13:46:36.877Z,18.08
2022-09-16T13:49:04.039Z,18.27
2022-09-16T13:51:37.953Z,19.15
2022-09-16T13:54:04.947Z,19.17
2022-09-16T13:56:59.396Z,21.17
2022-09-16T13:59:50.756Z,20.77
2022-09-16T14:02:36.297Z,20.77
2022-09-16T14:05:21.233Z,20.42
2022-09-16T14:08:03.646Z,20.48
2022-09-16T14:11:21.780Z,21.52
2022-09-16T14:14:05.180Z,21.40
2022-09-16T14:16:35.101Z,21.45
2022-09-16T14:19:32.356Z,21.98
2022-09-16T14:22:05.125Z,22.42
2022-09-16T14:24:37.558Z,21.88
2022-09-16T14:27:05.339Z,22.17
2022-09-16T14:29:32.393Z,22.30
2022-09-16T14:31:59.634Z,21.35
2022-09-16T14:34:36.349Z,22.08
2022-09-16T14:37:05.100Z,20.35
2022-09-16T14:39:33.213Z,21.25
2022-09-16T14:42:05.199Z,21.45
2022-09-16T14:44:34.639Z,21.60
2022-09-16T14:47:29.378Z,22.10
2022-09-16T14:50:18.450Z,20.30
2022-09-16T14:52:55.585Z,21.20
2022-09-16T14:55:31.565Z,21.13
2022-09-16T14:57:59.625Z,20.42
2022-09-16T15:00:38.362Z,21.40
2022-09-16T15:03:14.243Z,21.15
2022-09-16T15:05:45.363Z,20.48
2022-09-16T15:08:31.234Z,20.70
2022-09-16T15:11:00.972Z,20.42
2022-09-16T15:13:35.356Z,20.83
2022-09-16T15:16:06.878Z,21.67
2022-09-16T15:18:36.191Z,21.27
2022-09-16T15:21:18.318Z,20.95
2022-09-16T15:23:54.926Z,21.38
2022-09-16T15:26:24.868Z,21.50
2022-09-16T15:28:52.153Z,23.63
2022-09-16T15:31:40.532Z,24.52
2022-09-16T15:34:22.286Z,22.00
2022-09-16T15:36:57.842Z,21.35
2022-09-16T15:39:32.412Z,21.60
2022-09-16T15:42:18.870Z,21.38
2022-09-16T15:44:59.207Z,23.40
2022-09-16T15:47:38.574Z,21.55
2022-09-16T15:50:12.070Z,20.92
2022-09-16T15:52:57.062Z,19.75
2022-09-16T15:55:51.336Z,21.50
2022-09-16T15:58:37.691Z,19.15
2022-09-16T16:01:17.732Z,18.15
2022-09-16T16:03:44.320Z,18.48
2022-09-16T16:06:11.843Z,18.55
2022-09-16T16:08:44.516Z,17.90
2022-09-16T16:11:14.268Z,16.52
2022-09-16T16:13:42.420Z,16.92
2022-09-16T16:16:10.141Z,16.65
2022-09-16T16:18:38.089Z,16.38
2022-09-16T16:21:10.434Z,17.25
2022-09-16T16:23:37.580Z,16.60
2022-09-16T16:26:06.280Z,17.27
2022-09-16T16:28:33.289Z,17.25
2022-09-16T16:31:13.491Z,16.65
2022-09-16T16:33:45.162Z,16.30
2022-09-16T16:36:16.806Z,17.58
2022-09-16T16:38:45.422Z,16.55
2022-09-16T16:41:13.387Z,15.07
2022-09-16T16:43:40.104Z,14.70
2022-09-16T16:46:07.016Z,12.88
2022-09-16T16:48:34.086Z,12.73
2022-09-16T16:51:09.832Z,14.85
2022-09-16T16:53:36.780Z,14.48
2022-09-16T16:56:05.241Z,14.70
2022-09-16T16:58:33.049Z,14.40
2022-09-16T17:01:27.507Z,12.23
2022-09-16T17:03:54.856Z,11.98
2022-09-16T17:06:21.460Z,12.88
2022-09-16T17:08:49.094Z,12.32
2022-09-16T17:11:17.861Z,11.48
2022-09-16T17:13:47.042Z,9.63
2022-09-16T17:16:16.714Z,10.65
2022-09-16T17:18:44.203Z,10.57
2022-09-16T17:21:16.528Z,10.13
2022-09-16T17:23:43.784Z,11.45
2022-09-16T17:26:11.067Z,11.70
2022-09-16T17:28:39.834Z,13.85
2022-09-16T17:31:16.376Z,23.00
2022-09-16T17:33:44.496Z,11.20
2022-09-16T17:36:13.438Z,10.43
2022-09-16T17:38:40.120Z,9.85
2022-09-16T17:41:10.699Z,9.88
2022-09-16T17:43:38.518Z,13.45
2022-09-16T17:46:07.056Z,7.05
2022-09-16T17:48:36.243Z,9.38
2022-09-16T17:51:03.349Z,13.15
2022-09-16T17:53:30.130Z,13.57
2022-09-16T17:56:08.550Z,11.05
2022-09-16T17:58:36.910Z,11.73
2022-09-16T18:01:25.154Z,15.02
2022-09-16T18:03:54.212Z,14.27
2022-09-16T18:06:32.434Z,12.38
2022-09-16T18:09:04.059Z,16.73
2022-09-16T18:11:31.129Z,17.90
2022-09-16T18:14:00.218Z,15.20
2022-09-16T18:16:28.855Z,16.52
2022-09-16T18:18:58.625Z,15.45
2022-09-16T18:21:26.655Z,10.95
2022-09-16T18:23:58.443Z,17.10
2022-09-16T18:26:26.256Z,14.07
2022-09-16T18:29:12.379Z,11.98
2022-09-16T18:31:43.577Z,15.15
2022-09-16T18:34:11.056Z,11.18
2022-09-16T18:36:39.078Z,13.43
2022-09-16T18:39:07.166Z,17.40
2022-09-16T18:41:38.603Z,16.98
2022-09-16T18:44:19.432Z,11.13
2022-09-16T18:46:46.360Z,10.07
2022-09-16T18:49:15.907Z,12.70
2022-09-16T18:51:49.796Z,10.40
2022-09-16T18:54:20.196Z,9.50
2022-09-16T18:56:46.881Z,14.20
2022-09-16T18:59:21.394Z,10.68
2022-09-16T19:01:49.801Z,12.88
2022-09-16T19:04:18.496Z,15.07
2022-09-16T19:06:48.194Z,12.98
2022-09-16T19:09:19.283Z,16.70
2022-09-16T19:11:46.030Z,11.30
2022-09-16T19:14:13.785Z,11.82
2022-09-16T19:16:42.802Z,13.75
2022-09-16T19:19:11.144Z,11.70
2022-09-16T19:21:38.521Z,11.38
2022-09-16T19:24:07.957Z,13.30
2022-09-16T19:26:37.039Z,11.32
2022-09-16T19:29:06.648Z,14.63
2022-09-16T19:31:35.129Z,10.40
2022-09-16T19:34:02.060Z,12.48
2022-09-16T19:36:30.733Z,9.80
2022-09-16T19:38:57.953Z,10.20
2022-09-16T19:41:26.792Z,10.52
2022-09-16T19:43:59.228Z,9.00
2022-09-16T19:46:26.843Z,13.43
2022-09-16T19:48:54.655Z,9.13
2022-09-16T19:51:23.534Z,8.88
2022-09-16T19:53:54.198Z,14.38
2022-09-16T19:56:23.477Z,15.23
2022-09-16T19:58:51.628Z,9.95
2022-09-16T20:01:21.209Z,11.65
2022-09-16T20:03:49.269Z,10.07
2022-09-16T20:06:18.286Z,9.40
2022-09-16T20:08:46.681Z,10.02
2022-09-16T20:11:18.735Z,8.48
2022-09-16T20:13:53.035Z,14.32
2022-09-16T20:16:21.782Z,8.02
2022-09-16T20:18:48.857Z,9.13
2022-09-16T20:21:21.890Z,11.25
2022-09-16T20:23:48.776Z,13.18
2022-09-16T20:26:19.670Z,9.50
2022-09-16T20:28:51.810Z,12.07
2022-09-16T20:31:27.487Z,12.48
2022-09-16T20:33:54.776Z,10.55
2022-09-16T20:36:23.668Z,13.23
2022-09-16T20:38:51.093Z,12.32
2022-09-16T20:41:20.800Z,15.20
2022-09-16T20:43:47.794Z,12.23
2022-09-16T20:46:21.748Z,12.05
2022-09-16T20:48:49.012Z,10.98
2022-09-16T20:51:18.888Z,13.07
2022-09-16T20:53:56.036Z,15.00
2022-09-16T20:56:23.003Z,22.25
2022-09-16T20:58:50.407Z,20.17
2022-09-16T21:01:25.001Z,17.73
2022-09-16T21:03:57.551Z,15.55
2022-09-16T21:06:25.453Z,15.75
2022-09-16T21:08:58.049Z,17.35
2022-09-16T21:11:25.439Z,15.68
2022-09-16T21:13:56.199Z,22.77
2022-09-16T21:16:23.560Z,19.17
2022-09-16T21:18:54.924Z,18.60
2022-09-16T21:21:22.345Z,13.00
2022-09-16T21:23:50.183Z,19.10
2022-09-16T21:26:22.729Z,10.20
2022-09-16T21:29:01.077Z,15.13
2022-09-16T21:31:29.318Z,9.68
2022-09-16T21:33:57.308Z,12.55
2022-09-16T21:36:25.420Z,14.88
2022-09-16T21:38:52.104Z,14.80
2022-09-16T21:41:23.875Z,21.65
2022-09-16T21:43:55.231Z,20.77
2022-09-16T21:46:23.180Z,22.73
2022-09-16T21:48:50.613Z,16.88
2022-09-16T21:51:19.502Z,11.70
2022-09-16T21:53:47.294Z,10.55
2022-09-16T21:56:21.797Z,16.17
2022-09-16T21:58:49.915Z,11.75
2022-09-16T22:01:22.313Z,10.85
2022-09-16T22:03:55.110Z,13.20
2022-09-16T22:06:22.545Z,15.23
2022-09-16T22:08:50.017Z,14.18
2022-09-16T22:11:18.729Z,11.18
2022-09-16T22:13:46.080Z,11.60
2022-09-16T22:16:17.158Z,12.48
2022-09-16T22:18:44.351Z,15.27
2022-09-16T22:21:14.442Z,11.80
2022-09-16T22:23:41.210Z,7.72
2022-09-16T22:26:10.622Z,10.07
2022-09-16T22:28:38.053Z,9.40
2022-09-16T22:31:16.754Z,7.43
2022-09-16T22:33:45.042Z,6.40
2022-09-16T22:36:14.447Z,14.13
2022-09-16T22:38:47.083Z,11.32
2022-09-16T22:41:14.421Z,8.57
2022-09-16T22:43:43.100Z,8.38
2022-09-16T22:46:12.995Z,8.15
2022-09-16T22:48:40.562Z,8.45
2022-09-16T22:51:08.397Z,11.27
2022-09-16T22:53:35.713Z,7.38
2022-09-16T22:56:04.962Z,11.05
2022-09-16T22:58:32.190Z,12.93
2022-09-16T23:01:20.006Z,10.23
2022-09-16T23:03:50.810Z,15.57
2022-09-16T23:06:17.503Z,12.00
2022-09-16T23:08:45.574Z,14.80
2022-09-16T23:11:14.679Z,17.02
2022-09-16T23:13:42.357Z,12.45
2022-09-16T23:16:17.864Z,9.70
2022-09-16T23:18:45.885Z,12.07
2022-09-16T23:21:15.339Z,12.30
2022-09-16T23:23:44.775Z,10.23
2022-09-16T23:26:14.827Z,12.30
2022-09-16T23:28:41.798Z,10.73
2022-09-16T23:31:11.544Z,13.45
2022-09-16T23:33:39.252Z,13.88
2022-09-16T23:36:06.991Z,17.98
2022-09-16T23:38:36.020Z,14.10
2022-09-16T23:41:05.009Z,9.65
2022-09-16T23:43:32.224Z,13.35
2022-09-16T23:46:01.765Z,8.43
2022-09-16T23:48:29.756Z,12.35
2022-09-16T23:50:56.711Z,10.32
2022-09-16T23:53:23.354Z,9.38
2022-09-16T23:55:50.733Z,7.45
2022-09-16T23:58:17.421Z,7.20
